Nederlandse vliegveldverwachtingen (TAF)

Luchtvaartmeteorologische informatie voor operationeel gebruik en vluchtvoorbereiding is beschikbaar op www.luchtvaartmeteo.nl.

ZCZC
FT141700 EHAM     AMSTERDAM/SCHIPHOL   NLD   -3 m.
TAF EHAM 141723Z 1418/1524 19009KT 9999 SCT020
    PROB30 TEMPO 1418/1422 5000 -SHRAGSSN SCT018CB BKN020
    BECMG 1422/1501 6000
    BECMG 1503/1506 BKN008
    PROB30 1503/1513 3000 BR BKN004
    BECMG 1512/1515 BKN012
    BECMG 1516/1519 31007KT 9999 SCT020
    TEMPO 1519/1524 5000 SHRA SHRAGS SCT018CB BKN030=

ZCZC
FT141700 EHBK     MAASTRICHT/MAASTRICHT-AACHEN   NLD   114 m.
TAF EHBK 141722Z 1418/1524 20009KT 9999 BKN015
    BECMG 1418/1421 BKN012
    PROB40 TEMPO 1418/1424 23014KT 4000 -SHRASN BKN008 FEW015CB
    PROB30 1500/1506 BKN008
    PROB40 TEMPO 1506/1521 23014KT 4000 -SHRASN -RASN BKN008
    SCT015CB
    BECMG 1521/1524 4000 BR BKN004
    PROB30 1522/1524 0800 FG BKN001=

ZCZC
FT141700 EHGG     GRONINGEN/EELDE   NLD   5 m.
TAF EHGG 141723Z 1418/1524 20012KT 9999 BKN020
    BECMG 1418/1421 4000 BR BKN008
    PROB30 TEMPO 1418/1420 4000 SHRA SHRASNGS BKN008 SCT015CB
    BECMG 1422/1501 BKN003
    BECMG 1511/1514 25008KT 5000 BKN008
    PROB40 TEMPO 1517/1522 2000 BKN003
    TEMPO 1519/1523 4000 SHRA SHRAGS SCT008 SCT020CB BKN030
    BECMG 1521/1524 9999 NSW BKN030=

ZCZC
FT141700 EHRD     ROTTERDAM/THE HAGUE AIRPORT   NLD   -5 m.
TAF EHRD 141723Z 1418/1524 19009KT 9999 SCT020
    PROB30 TEMPO 1418/1422 5000 -SHRAGSSN SCT018CB BKN020
    BECMG 1422/1501 6000
    BECMG 1502/1505 BKN008
    PROB30 1503/1513 3000 BR BKN004
    BECMG 1512/1515 BKN012
    BECMG 1516/1519 31007KT 9999 SCT020
    TEMPO 1519/1524 5000 SHRA SHRAGS SCT018CB BKN030=

ZCZC
FT141700 EHEH CCA EINDHOVEN/EINDHOVEN   NLD   22 m.
TAF COR EHEH 141853Z 1418/1524 20009KT 9999 FEW013 SCT018
    BKN180
    PROB40 1423/1508 4000 BR BKN008 BKN012
    PROB30 TEMPO 1508/1515 4000 -SHRA SCT010 SCT014CB BKN020
    BECMG 1517/1520 4000 BR
    PROB30 1520/1524 VRB02KT 0800 FG=

ZCZC
FC142000 EHGR     GILZE-RIJEN/GILZE-RIJEN   NLD   14 m.
TAF EHGR 142000Z NIL=

ZCZC
FC142000 EHVK     VOLKEL/VOLKEL   NLD   21 m.
TAF EHVK 142000Z NIL=

ZCZC
FC142000 EHWO     WOENSDRECHT/WOENSDRECHT   NLD   19 m.
TAF EHWO 142000Z NIL=

ZCZC
FC142000 EHLW RRA LEEUWARDEN/LEEUWARDEN   NLD   1 m.
TAF EHLW 142119Z 1422/1510 18007KT 9999 FEW020 SCT030
    TEMPO 1422/1510 26015G25KT 3500 SHRAGS FEW007 SCT015
    SCT018CB
    PROB40 1422/1510 4000 BR BKN008=

ZCZC
FC142200 EHKD     DE KOOY/DE KOOY   NLD   1 m.
TAF EHKD 142200Z NIL=

14/12/2017 23.30 uur LT